Time;durP1;ratioP1;P1;durP2;ratioP2;P2;SDS_P1;SDS_P2;PMS_P1;PMS_P2;Temp;Humidity;BMP_temperature;BMP_pressure;BME280_temperature;BME280_humidity;BME280_pressure;Samples;Min_cycle;Max_cycle;Signal;HPM_P1;HPM_P2
2022/03/24 00:02:26;;;;;;;45.73;25.93;;;7.20;86.40;;;;;;5002378;28;20244;-74
2022/03/24 00:05:15;;;;;;;44.37;26.03;;;7.30;87.00;;;;;;4989658;28;20342;-75
2022/03/24 00:08:06;;;;;;;42.53;25.40;;;7.30;88.20;;;;;;4994818;28;20865;-74
2022/03/24 00:10:54;;;;;;;44.80;25.73;;;7.30;87.80;;;;;;5013936;28;20249;-74
2022/03/24 00:13:43;;;;;;;42.00;24.50;;;7.30;88.30;;;;;;5007170;28;20218;-74
2022/03/24 00:16:32;;;;;;;38.47;23.77;;;7.20;87.60;;;;;;4997763;28;20228;-73
2022/03/24 00:19:22;;;;;;;40.97;23.67;;;7.10;88.20;;;;;;5002875;28;20801;-73
2022/03/24 00:22:12;;;;;;;36.13;23.53;;;7.20;88.40;;;;;;4993004;28;20638;-73
2022/03/24 00:25:01;;;;;;;41.73;24.27;;;7.00;88.70;;;;;;5002450;28;20234;-73
2022/03/24 00:27:50;;;;;;;39.83;24.23;;;7.00;89.30;;;;;;5009155;28;20229;-72
2022/03/24 00:30:38;;;;;;;41.73;22.73;;;7.00;89.40;;;;;;5002955;28;20222;-74
2022/03/24 00:33:28;;;;;;;41.40;24.93;;;6.80;90.10;;;;;;5005930;28;20218;-73
2022/03/24 00:36:21;;;;;;;37.43;24.33;;;6.90;90.30;;;;;;5012109;28;20222;-74
2022/03/24 00:39:11;;;;;;;39.90;25.13;;;6.90;90.40;;;;;;5008064;28;20228;-73
2022/03/24 00:42:00;;;;;;;35.23;21.37;;;6.90;90.40;;;;;;4982622;28;20229;-73
2022/03/24 00:44:51;;;;;;;39.80;24.00;;;6.70;90.50;;;;;;4974722;28;20229;-74
2022/03/24 00:47:39;;;;;;;39.80;23.57;;;6.70;91.00;;;;;;4988378;28;20219;-74
2022/03/24 00:50:28;;;;;;;35.23;22.37;;;6.60;91.30;;;;;;4993589;28;20218;-74
2022/03/24 00:53:19;;;;;;;41.90;22.40;;;6.70;91.20;;;;;;5003272;28;20236;-73
2022/03/24 00:56:08;;;;;;;36.27;23.03;;;6.50;91.50;;;;;;4999936;28;20269;-74
2022/03/24 00:58:56;;;;;;;31.80;20.80;;;6.60;91.40;;;;;;5006687;28;20240;-75
2022/03/24 01:01:46;;;;;;;35.13;21.40;;;6.50;91.50;;;;;;5005805;28;20229;-75
2022/03/24 01:04:35;;;;;;;32.37;19.33;;;6.50;91.70;;;;;;5001917;28;20241;-74
2022/03/24 01:07:28;;;;;;;36.70;20.03;;;6.40;91.80;;;;;;5017596;28;20218;-73
2022/03/24 01:10:19;;;;;;;33.27;20.83;;;6.20;92.40;;;;;;4994431;28;20224;-73
2022/03/24 01:13:09;;;;;;;38.13;21.13;;;6.20;92.70;;;;;;4996415;28;20325;-73
2022/03/24 01:15:58;;;;;;;35.93;20.40;;;6.30;92.90;;;;;;4983225;28;20381;-73
2022/03/24 01:18:47;;;;;;;31.57;20.60;;;6.30;93.30;;;;;;4992185;28;20714;-73
2022/03/24 01:21:36;;;;;;;32.33;18.80;;;6.30;92.90;;;;;;4980599;28;20225;-73
2022/03/24 01:24:25;;;;;;;33.53;19.87;;;6.10;93.30;;;;;;4996378;28;20296;-73
2022/03/24 01:27:16;;;;;;;31.77;18.47;;;6.10;93.80;;;;;;4994916;28;20234;-73
2022/03/24 01:30:09;;;;;;;31.27;18.90;;;6.10;94.00;;;;;;4994358;28;20242;-72
2022/03/24 01:33:02;;;;;;;30.80;18.33;;;6.10;94.10;;;;;;5007918;28;20403;-72
2022/03/24 01:35:52;;;;;;;27.40;17.43;;;6.10;94.10;;;;;;4990765;28;20238;-72
2022/03/24 01:38:40;;;;;;;33.33;19.07;;;6.10;94.40;;;;;;5000954;28;20226;-71
2022/03/24 01:41:29;;;;;;;29.40;18.67;;;6.20;94.60;;;;;;4990799;28;20740;-72
2022/03/24 01:44:21;;;;;;;29.43;18.47;;;6.10;94.80;;;;;;5015932;28;20214;-71
2022/03/24 01:47:11;;;;;;;30.83;18.17;;;6.10;94.90;;;;;;5002183;28;20229;-71
2022/03/24 01:50:00;;;;;;;30.23;19.20;;;6.10;94.90;;;;;;5003513;28;20319;-71
2022/03/24 01:52:48;;;;;;;33.97;19.53;;;6.00;95.50;;;;;;5000197;28;20238;-71
2022/03/24 01:55:39;;;;;;;34.10;19.90;;;6.00;95.60;;;;;;5003162;28;20698;-72
2022/03/24 01:58:29;;;;;;;28.07;17.87;;;5.90;96.10;;;;;;4996405;28;20308;-70
2022/03/24 02:01:30;;;;;;;31.13;18.73;;;5.90;96.50;;;;;;5015168;28;20344;-71
2022/03/24 02:04:20;;;;;;;30.43;18.47;;;5.80;97.00;;;;;;5001312;28;20749;-71
2022/03/24 02:07:10;;;;;;;29.53;17.67;;;6.00;96.90;;;;;;5009826;28;20225;-73
2022/03/24 02:10:01;;;;;;;27.77;17.33;;;6.00;97.10;;;;;;5005584;28;20242;-74
2022/03/24 02:12:52;;;;;;;31.03;16.77;;;6.00;96.80;;;;;;4988742;28;20237;-74
2022/03/24 02:15:41;;;;;;;25.87;17.13;;;5.90;97.00;;;;;;4997012;28;20237;-75
2022/03/24 02:18:32;;;;;;;27.60;16.00;;;5.90;97.70;;;;;;4995968;28;20528;-79
2022/03/24 02:21:21;;;;;;;25.33;15.73;;;5.90;97.90;;;;;;5007079;28;20308;-79
2022/03/24 02:24:13;;;;;;;26.40;16.17;;;5.90;97.90;;;;;;4994652;28;20277;-80
2022/03/24 02:27:03;;;;;;;29.47;17.47;;;6.00;97.80;;;;;;5019937;28;20263;-79
2022/03/24 02:29:52;;;;;;;26.17;16.73;;;5.90;98.30;;;;;;4993388;28;20230;-80
2022/03/24 02:32:42;;;;;;;28.30;18.13;;;5.80;98.50;;;;;;4995205;28;20237;-75
2022/03/24 02:35:31;;;;;;;29.90;18.93;;;6.00;98.70;;;;;;5005205;28;20297;-77
2022/03/24 02:38:20;;;;;;;34.37;17.27;;;5.90;99.30;;;;;;5002689;28;20214;-80
2022/03/24 02:41:10;;;;;;;27.67;16.87;;;5.80;99.30;;;;;;4998960;28;20214;-77
2022/03/24 02:44:00;;;;;;;30.03;17.53;;;5.90;99.90;;;;;;5009504;28;20236;-78
2022/03/24 02:46:50;;;;;;;29.83;18.00;;;5.90;99.60;;;;;;4990739;28;21305;-82
2022/03/24 02:49:40;;;;;;;26.20;17.17;;;5.80;99.90;;;;;;5014124;28;20237;-83
2022/03/24 02:52:28;;;;;;;28.23;17.50;;;6.00;99.90;;;;;;4989621;28;20325;-84
2022/03/24 02:55:17;;;;;;;32.77;17.63;;;6.10;99.70;;;;;;5002455;28;20688;-83
2022/03/24 02:58:07;;;;;;;27.80;16.53;;;6.10;99.80;;;;;;4998373;28;20700;-83
2022/03/24 03:00:56;;;;;;;30.07;17.70;;;5.90;99.90;;;;;;4987618;28;20735;-82
2022/03/24 03:03:46;;;;;;;28.67;17.77;;;5.80;99.90;;;;;;5004605;28;20209;-83
2022/03/24 03:06:35;;;;;;;33.90;17.50;;;5.80;99.90;;;;;;5007505;28;20220;-82
2022/03/24 03:09:23;;;;;;;28.50;16.90;;;5.70;99.90;;;;;;5024814;28;20221;-80
2022/03/24 03:12:16;;;;;;;25.13;16.27;;;5.90;99.90;;;;;;5022691;28;20596;-82
2022/03/24 03:15:07;;;;;;;28.23;17.60;;;5.70;99.90;;;;;;5017285;28;20271;-81
2022/03/24 03:17:56;;;;;;;27.70;17.20;;;5.80;99.90;;;;;;5021674;28;20238;-82
2022/03/24 03:20:45;;;;;;;26.83;17.23;;;5.80;99.90;;;;;;5017353;28;20226;-82
2022/03/24 03:23:33;;;;;;;27.50;17.83;;;5.90;99.90;;;;;;5022577;28;20348;-82
2022/03/24 03:26:23;;;;;;;31.33;18.50;;;5.80;99.90;;;;;;5014594;28;20225;-73
2022/03/24 03:29:13;;;;;;;31.40;19.50;;;5.90;99.90;;;;;;5012994;28;20242;-73
2022/03/24 03:32:03;;;;;;;30.23;18.77;;;5.70;99.90;;;;;;5016490;28;20218;-73
2022/03/24 03:34:52;;;;;;;30.43;19.10;;;5.70;99.90;;;;;;5013872;28;20875;-73
2022/03/24 03:37:41;;;;;;;32.97;18.80;;;5.70;99.90;;;;;;5018477;28;20323;-73
2022/03/24 03:40:29;;;;;;;31.43;19.43;;;5.80;99.90;;;;;;5011841;28;20289;-73
2022/03/24 03:43:18;;;;;;;31.80;19.47;;;5.80;99.90;;;;;;5011083;28;20244;-73
2022/03/24 03:46:08;;;;;;;34.33;20.83;;;5.80;99.90;;;;;;5009881;28;20222;-72
2022/03/24 03:48:59;;;;;;;31.57;19.37;;;5.90;99.90;;;;;;5025238;28;20731;-72
2022/03/24 03:51:48;;;;;;;32.43;19.67;;;5.90;99.90;;;;;;5010947;28;20249;-72
2022/03/24 03:54:36;;;;;;;35.27;19.50;;;5.80;99.90;;;;;;5009790;28;20226;-72
2022/03/24 03:57:25;;;;;;;30.57;19.60;;;5.80;99.90;;;;;;5024020;28;20239;-72
2022/03/24 04:03:21;;;;;;;32.13;18.87;;;6.00;99.90;;;;;;5011437;28;20236;-73
2022/03/24 04:06:14;;;;;;;29.97;18.93;;;5.80;99.90;;;;;;5011428;28;20224;-71
2022/03/24 04:09:02;;;;;;;28.23;18.93;;;5.80;99.90;;;;;;5022263;28;20232;-73
2022/03/24 04:11:54;;;;;;;32.80;19.33;;;5.90;99.90;;;;;;5008924;28;20222;-73
2022/03/24 04:14:43;;;;;;;34.33;20.00;;;5.90;99.90;;;;;;5015704;28;20237;-71
2022/03/24 04:17:35;;;;;;;39.90;20.33;;;5.70;99.90;;;;;;5026875;28;21521;-72
2022/03/24 04:20:27;;;;;;;34.20;19.83;;;5.70;99.90;;;;;;5006261;28;20657;-73
2022/03/24 04:23:17;;;;;;;33.57;20.77;;;5.80;99.90;;;;;;5010100;28;20229;-72
2022/03/24 04:26:06;;;;;;;39.30;21.73;;;5.70;99.90;;;;;;5012132;28;20707;-72
2022/03/24 04:28:55;;;;;;;39.93;22.70;;;5.70;99.90;;;;;;5013355;28;20213;-72
2022/03/24 04:31:43;;;;;;;43.50;23.70;;;5.60;99.90;;;;;;5010257;28;20585;-73
2022/03/24 04:34:36;;;;;;;51.93;24.90;;;5.50;99.90;;;;;;4991784;28;20221;-72
2022/03/24 04:37:25;;;;;;;46.50;25.13;;;5.50;99.90;;;;;;4992390;28;20242;-72
2022/03/24 04:40:16;;;;;;;48.63;27.00;;;5.40;99.90;;;;;;4989700;28;20277;-74
2022/03/24 04:43:05;;;;;;;55.17;28.13;;;5.50;99.90;;;;;;5015848;28;20225;-74
2022/03/24 04:45:54;;;;;;;48.40;27.53;;;5.50;99.90;;;;;;5013922;28;20328;-76
2022/03/24 04:48:43;;;;;;;49.40;29.37;;;5.50;99.90;;;;;;5005884;28;20242;-76
2022/03/24 04:51:32;;;;;;;47.10;27.30;;;5.50;99.90;;;;;;5001111;28;20222;-77
2022/03/24 04:54:20;;;;;;;56.10;29.77;;;5.50;99.90;;;;;;5003731;28;20232;-76
2022/03/24 04:57:10;;;;;;;54.87;30.67;;;5.40;99.90;;;;;;5005936;28;20248;-76
2022/03/24 04:59:59;;;;;;;51.37;30.10;;;5.40;99.90;;;;;;5003152;28;20216;-73
2022/03/24 05:02:48;;;;;;;65.60;31.43;;;5.40;99.90;;;;;;5013113;28;20228;-74
2022/03/24 05:05:37;;;;;;;56.23;31.23;;;5.40;99.90;;;;;;4999221;28;20311;-73
2022/03/24 05:08:32;;;;;;;55.13;31.27;;;5.30;99.90;;;;;;5016013;28;20232;-73
2022/03/24 05:11:20;;;;;;;56.13;29.80;;;5.20;99.90;;;;;;5018190;28;20223;-73
2022/03/24 05:14:10;;;;;;;53.63;30.40;;;5.30;99.90;;;;;;4992549;28;20222;-73
2022/03/24 05:16:59;;;;;;;55.70;31.80;;;5.30;99.90;;;;;;4993226;28;20565;-74
2022/03/24 05:19:48;;;;;;;64.13;33.77;;;5.30;99.90;;;;;;4983559;28;20601;-73
2022/03/24 05:22:37;;;;;;;53.77;31.70;;;5.30;99.90;;;;;;4983552;28;20225;-74
2022/03/24 05:25:26;;;;;;;62.60;32.30;;;5.20;99.90;;;;;;5001282;28;20229;-75
2022/03/24 05:28:19;;;;;;;56.67;33.30;;;5.30;99.90;;;;;;5012080;28;20218;-74
2022/03/24 05:31:10;;;;;;;58.80;33.30;;;5.40;99.90;;;;;;5015653;28;20593;-74
2022/03/24 05:33:58;;;;;;;69.47;35.00;;;5.30;99.90;;;;;;5017289;28;20319;-72
2022/03/24 05:36:48;;;;;;;65.13;33.97;;;5.40;99.90;;;;;;5014844;28;20244;-71
2022/03/24 05:39:36;;;;;;;65.80;35.13;;;5.40;99.90;;;;;;5011159;28;20355;-73
2022/03/24 05:42:26;;;;;;;59.13;33.47;;;5.50;99.90;;;;;;5016526;28;20236;-71
2022/03/24 05:45:15;;;;;;;60.97;33.47;;;5.60;99.90;;;;;;5019266;28;20242;-72
2022/03/24 05:48:06;;;;;;;54.73;32.43;;;5.60;99.90;;;;;;5016039;28;20235;-72
2022/03/24 05:51:10;;;;;;;57.27;33.43;;;5.70;99.90;;;;;;5032125;28;20286;-80
2022/03/24 05:53:59;;;;;;;56.83;33.50;;;5.70;99.90;;;;;;5020008;28;20236;-80
2022/03/24 05:56:50;;;;;;;60.20;34.33;;;5.80;99.90;;;;;;5020263;28;20225;-77
2022/03/24 05:59:39;;;;;;;63.30;34.07;;;5.80;99.90;;;;;;5018148;28;20257;-77
2022/03/24 06:02:28;;;;;;;66.70;34.77;;;5.90;99.90;;;;;;5023861;28;20213;-77
2022/03/24 06:05:23;;;;;;;61.33;35.70;;;5.90;99.90;;;;;;5020789;28;20230;-77
2022/03/24 06:08:12;;;;;;;61.67;34.83;;;6.00;99.90;;;;;;5029653;28;20237;-77
2022/03/24 06:11:01;;;;;;;59.03;34.13;;;6.10;99.90;;;;;;5016079;28;20308;-77
2022/03/24 06:13:53;;;;;;;61.80;34.80;;;6.10;99.90;;;;;;5018633;28;20269;-77
2022/03/24 06:16:42;;;;;;;62.30;34.77;;;6.30;99.90;;;;;;5015243;28;20226;-74
2022/03/24 06:19:31;;;;;;;61.77;36.33;;;6.40;99.90;;;;;;5025703;28;20359;-74
2022/03/24 06:22:23;;;;;;;69.07;35.73;;;6.50;99.90;;;;;;5029917;28;20291;-77
2022/03/24 06:25:11;;;;;;;63.20;35.13;;;6.50;99.90;;;;;;5015073;28;20245;-78
2022/03/24 06:28:00;;;;;;;66.63;36.27;;;6.60;99.90;;;;;;5017778;28;20221;-68
2022/03/24 06:30:49;;;;;;;50.43;29.00;;;6.70;99.90;;;;;;5014844;28;20279;-69
2022/03/24 06:33:38;;;;;;;48.27;29.40;;;6.70;99.90;;;;;;5014586;28;21605;-69
2022/03/24 06:36:27;;;;;;;55.80;32.17;;;6.80;99.90;;;;;;5024483;28;20225;-69
2022/03/24 06:39:17;;;;;;;52.37;29.80;;;6.90;99.90;;;;;;5023294;28;20235;-69
2022/03/24 06:42:07;;;;;;;47.43;28.63;;;6.80;99.90;;;;;;5027121;28;20226;-68
2022/03/24 06:44:55;;;;;;;66.87;31.10;;;6.90;99.90;;;;;;5004521;28;21063;-67
2022/03/24 06:47:44;;;;;;;57.37;31.67;;;7.00;99.90;;;;;;5013506;28;20221;-65
2022/03/24 06:50:36;;;;;;;52.63;29.83;;;7.10;99.90;;;;;;5013910;28;20221;-65
2022/03/24 06:53:25;;;;;;;55.60;31.03;;;7.10;99.90;;;;;;5014330;28;20634;-66
2022/03/24 06:56:15;;;;;;;56.00;29.57;;;7.30;99.90;;;;;;5014940;28;20248;-64
2022/03/24 06:59:10;;;;;;;55.67;30.87;;;7.40;99.90;;;;;;5016388;28;20268;-70
2022/03/24 07:02:02;;;;;;;48.90;28.80;;;7.50;99.90;;;;;;5012143;28;20226;-71
2022/03/24 07:04:54;;;;;;;41.37;26.53;;;7.50;99.90;;;;;;5027974;28;20300;-69
2022/03/24 07:07:47;;;;;;;42.63;27.20;;;7.50;99.90;;;;;;5012742;28;20271;-69
2022/03/24 07:10:36;;;;;;;43.60;27.40;;;7.70;99.90;;;;;;5016350;28;20233;-69
2022/03/24 07:13:30;;;;;;;42.07;26.30;;;7.80;99.90;;;;;;5014367;28;20222;-69
2022/03/24 07:16:19;;;;;;;43.17;26.37;;;7.80;99.90;;;;;;5018278;28;20238;-69
2022/03/24 07:19:09;;;;;;;45.40;26.57;;;7.80;99.90;;;;;;5016898;28;20673;-67
2022/03/24 07:21:57;;;;;;;43.53;24.67;;;7.90;99.90;;;;;;5013884;28;20233;-70
2022/03/24 07:24:46;;;;;;;37.13;22.80;;;8.10;99.90;;;;;;5008387;28;20222;-69
2022/03/24 07:27:35;;;;;;;39.97;23.37;;;8.10;99.90;;;;;;5015358;28;20229;-68
2022/03/24 07:30:26;;;;;;;42.83;22.53;;;8.10;99.90;;;;;;4990845;28;20225;-70
2022/03/24 07:33:18;;;;;;;35.13;21.90;;;8.10;99.90;;;;;;4994506;28;20222;-69
2022/03/24 07:36:07;;;;;;;40.30;24.03;;;8.20;99.90;;;;;;4985391;28;20226;-69
2022/03/24 07:38:58;;;;;;;37.33;23.47;;;8.30;99.90;;;;;;4994618;28;20410;-69
2022/03/24 07:41:47;;;;;;;42.10;23.50;;;8.40;99.90;;;;;;4997795;28;20224;-69
2022/03/24 07:44:36;;;;;;;42.57;24.27;;;9.10;99.90;;;;;;4998879;28;20214;-70
2022/03/24 07:47:26;;;;;;;40.73;23.73;;;11.70;99.10;;;;;;4995576;28;20247;-69
2022/03/24 07:50:15;;;;;;;35.15;21.15;;;13.00;92.90;;;;;;4995911;28;20467;-69
2022/03/24 07:53:21;;;;;;;34.25;19.25;;;14.30;84.20;;;;;;5000606;28;20229;-69
2022/03/24 07:56:10;;;;;;;34.20;20.08;;;15.90;74.20;;;;;;4996608;28;20731;-67
2022/03/24 07:59:00;;;;;;;30.92;19.40;;;17.30;66.40;;;;;;4989647;28;20225;-68
2022/03/24 08:01:49;;;;;;;34.40;20.23;;;17.70;63.00;;;;;;4989302;28;20222;-68
2022/03/24 08:04:39;;;;;;;30.45;18.55;;;18.10;60.60;;;;;;4989496;28;20315;-67
2022/03/24 08:07:28;;;;;;;35.47;20.08;;;18.30;59.20;;;;;;4999324;28;20678;-68
2022/03/24 08:10:16;;;;;;;28.83;18.73;;;19.40;57.20;;;;;;4993188;28;20240;-68
2022/03/24 08:13:05;;;;;;;28.23;19.52;;;18.40;56.70;;;;;;4996423;28;20222;-68
2022/03/24 08:15:56;;;;;;;26.27;17.95;;;19.50;55.60;;;;;;5001201;28;20229;-68
2022/03/24 08:18:45;;;;;;;33.33;21.10;;;20.20;54.30;;;;;;4996578;28;20305;-68
2022/03/24 08:21:35;;;;;;;30.85;19.75;;;21.00;53.00;;;;;;4995755;28;20863;-69
2022/03/24 08:24:25;;;;;;;32.92;21.50;;;21.30;52.30;;;;;;4995257;28;20345;-68
2022/03/24 08:27:14;;;;;;;26.35;18.45;;;21.20;51.80;;;;;;4998148;28;20676;-70
2022/03/24 08:30:02;;;;;;;27.92;17.90;;;21.50;49.60;;;;;;5012425;28;20221;-70
2022/03/24 08:32:51;;;;;;;28.05;17.30;;;21.70;50.00;;;;;;5016985;28;20581;-68
2022/03/24 08:35:41;;;;;;;28.15;17.98;;;22.70;48.50;;;;;;5018583;28;20234;-73
2022/03/24 08:38:31;;;;;;;28.80;19.48;;;22.60;48.20;;;;;;5014502;28;20237;-72
2022/03/24 09:39:04;;;;;;;22.27;14.70;;;14.20;59.30;;;;;;5021037;27;21408;-68
2022/03/24 09:41:53;;;;;;;21.52;15.35;;;13.60;61.20;;;;;;5032651;28;20225;-70
2022/03/24 09:44:42;;;;;;;19.60;14.40;;;13.60;61.90;;;;;;5031253;28;20260;-69
2022/03/24 09:47:33;;;;;;;21.60;14.07;;;13.40;62.10;;;;;;5031202;28;20400;-69
2022/03/24 09:50:22;;;;;;;22.50;14.70;;;13.30;62.80;;;;;;5020634;28;20232;-68
2022/03/24 09:53:11;;;;;;;21.40;14.40;;;13.10;63.50;;;;;;5020961;28;20229;-68
2022/03/24 09:56:01;;;;;;;25.17;14.15;;;13.30;64.20;;;;;;5030096;28;20783;-68
2022/03/24 09:58:51;;;;;;;21.95;13.95;;;13.20;63.20;;;;;;5026223;28;20256;-67
2022/03/24 10:01:40;;;;;;;22.20;13.82;;;13.20;64.20;;;;;;5017809;28;20250;-68
2022/03/24 10:04:45;;;;;;;20.58;13.30;;;13.20;63.20;;;;;;5011542;28;20219;-68
2022/03/24 10:07:46;;;;;;;23.42;14.07;;;13.20;63.60;;;;;;5029746;28;20228;-68
2022/03/24 10:10:36;;;;;;;24.70;13.73;;;13.40;63.10;;;;;;5027846;28;20261;-69
2022/03/24 10:13:44;;;;;;;21.40;12.98;;;13.30;63.30;;;;;;5030336;28;20577;-68
2022/03/24 10:16:41;;;;;;;18.50;11.63;;;13.20;63.60;;;;;;5031021;28;20332;-68
2022/03/24 10:19:31;;;;;;;15.48;11.02;;;13.20;63.00;;;;;;5029962;28;20229;-68
2022/03/24 10:22:23;;;;;;;13.90;9.60;;;13.20;62.70;;;;;;5016475;28;20408;-68
2022/03/24 10:25:21;;;;;;;12.48;8.63;;;13.30;61.90;;;;;;5007381;28;20235;-68
2022/03/24 10:28:12;;;;;;;11.32;6.90;;;13.20;60.60;;;;;;5009292;28;20233;-67
2022/03/24 10:31:03;;;;;;;11.80;6.70;;;13.30;60.00;;;;;;5011394;28;20233;-66
2022/03/24 10:33:52;;;;;;;10.43;5.95;;;13.40;59.10;;;;;;5014720;28;20298;-67
2022/03/24 10:36:45;;;;;;;12.25;5.80;;;13.30;57.90;;;;;;5015410;28;20218;-68
2022/03/24 10:39:35;;;;;;;11.02;6.18;;;13.10;58.10;;;;;;5027238;28;20221;-68
2022/03/24 10:42:26;;;;;;;10.07;6.03;;;13.20;57.90;;;;;;4987823;28;20297;-68
2022/03/24 10:45:18;;;;;;;10.40;6.05;;;13.10;57.90;;;;;;5021568;28;21104;-68
2022/03/24 10:48:08;;;;;;;13.48;6.40;;;13.00;58.00;;;;;;5041186;28;20232;-68
2022/03/24 10:50:57;;;;;;;13.18;6.53;;;13.10;58.10;;;;;;5019622;28;20220;-67
2022/03/24 10:53:46;;;;;;;14.23;6.45;;;13.20;58.40;;;;;;5014412;28;20746;-67
2022/03/24 10:56:40;;;;;;;12.75;7.03;;;13.20;58.20;;;;;;5008135;28;20311;-69
2022/03/24 10:59:32;;;;;;;15.52;6.95;;;13.20;58.50;;;;;;4991967;28;20241;-68
2022/03/24 11:02:23;;;;;;;11.98;7.70;;;13.20;58.80;;;;;;4995811;28;20249;-67
2022/03/24 11:05:14;;;;;;;11.75;6.68;;;13.30;58.90;;;;;;5009040;28;20342;-67
2022/03/24 11:08:08;;;;;;;10.57;7.20;;;13.30;58.90;;;;;;4996026;28;20653;-67
2022/03/24 11:10:57;;;;;;;12.88;7.05;;;13.40;59.00;;;;;;5020557;28;20217;-67
2022/03/24 11:13:51;;;;;;;13.73;7.30;;;13.40;58.80;;;;;;4998468;28;20225;-68
2022/03/24 11:16:41;;;;;;;12.00;6.93;;;13.30;59.10;;;;;;5008557;28;20221;-72
2022/03/24 11:19:30;;;;;;;10.90;6.90;;;13.30;58.60;;;;;;5012006;28;20657;-70
2022/03/24 11:22:21;;;;;;;11.38;6.57;;;13.00;58.70;;;;;;4983576;28;20229;-65
2022/03/24 11:25:14;;;;;;;11.45;6.15;;;13.10;58.90;;;;;;5011851;28;20682;-64
2022/03/24 11:28:07;;;;;;;10.65;7.00;;;13.00;58.80;;;;;;5008864;28;20221;-73
2022/03/24 11:30:55;;;;;;;14.68;6.57;;;13.10;59.00;;;;;;4996217;28;20238;-69
2022/03/24 11:33:48;;;;;;;11.13;6.07;;;13.10;58.90;;;;;;4987647;28;20230;-67
2022/03/24 11:36:38;;;;;;;9.23;6.53;;;13.10;59.00;;;;;;4993511;28;20313;-69
2022/03/24 11:39:28;;;;;;;14.02;6.88;;;13.10;59.00;;;;;;4993296;28;20241;-68
2022/03/24 11:42:17;;;;;;;9.50;6.35;;;13.30;58.90;;;;;;4995646;28;20225;-69
2022/03/24 11:45:14;;;;;;;11.82;6.90;;;13.20;58.50;;;;;;5025389;28;20245;-69
2022/03/24 11:48:06;;;;;;;13.07;6.82;;;13.20;58.50;;;;;;5003762;28;20242;-69
2022/03/24 11:50:55;;;;;;;10.50;7.13;;;13.00;58.40;;;;;;5005985;28;20225;-69
2022/03/24 11:53:45;;;;;;;17.17;6.85;;;13.20;58.50;;;;;;5017030;28;20966;-68
2022/03/24 11:56:36;;;;;;;11.85;7.22;;;13.30;58.60;;;;;;5015016;28;20308;-68
2022/03/24 11:59:24;;;;;;;14.85;7.40;;;13.30;58.50;;;;;;5015834;28;20229;-68
2022/03/24 12:02:19;;;;;;;13.65;6.63;;;13.30;58.50;;;;;;5012745;28;20604;-68
2022/03/24 12:05:08;;;;;;;15.23;6.80;;;13.30;57.90;;;;;;5018138;28;20648;-68
2022/03/24 12:08:05;;;;;;;9.93;6.72;;;13.30;57.80;;;;;;5014662;28;20233;-68
2022/03/24 12:10:55;;;;;;;13.95;6.53;;;13.30;58.00;;;;;;5016274;28;20226;-67
2022/03/24 12:13:55;;;;;;;14.85;6.95;;;13.30;58.00;;;;;;4997814;28;20227;-68
2022/03/24 12:16:46;;;;;;;10.90;6.82;;;13.40;58.20;;;;;;4997379;28;20952;-77
2022/03/24 12:19:40;;;;;;;14.45;7.63;;;13.40;57.90;;;;;;4993696;28;20321;-68
2022/03/24 12:22:48;;;;;;;15.85;7.78;;;13.20;57.90;;;;;;4995890;28;20246;-76
2022/03/24 12:25:37;;;;;;;15.45;7.20;;;13.30;58.10;;;;;;5015821;28;20304;-67
2022/03/24 12:28:27;;;;;;;14.50;7.05;;;13.30;58.20;;;;;;5001239;28;20641;-70
2022/03/24 12:31:18;;;;;;;12.73;7.60;;;13.40;58.20;;;;;;4992902;28;20222;-70
2022/03/24 12:34:14;;;;;;;13.35;6.88;;;13.40;58.20;;;;;;4993676;28;20223;-69
2022/03/24 12:37:03;;;;;;;12.02;7.15;;;13.40;57.90;;;;;;5003899;28;20234;-78
2022/03/24 12:40:11;;;;;;;13.57;7.50;;;13.50;58.10;;;;;;4999324;28;20277;-80
2022/03/24 12:43:02;;;;;;;14.23;7.05;;;13.50;58.60;;;;;;5025749;28;20247;-77
2022/03/24 12:45:51;;;;;;;12.18;7.35;;;13.50;58.10;;;;;;4992995;28;20223;-70
2022/03/24 12:48:56;;;;;;;11.07;7.45;;;13.60;58.00;;;;;;4991629;28;20926;-71
2022/03/24 12:51:52;;;;;;;11.50;6.80;;;13.40;57.80;;;;;;4995662;28;20218;-71
2022/03/24 12:54:44;;;;;;;11.27;6.63;;;13.40;58.10;;;;;;4998429;28;20275;-71
2022/03/24 12:57:34;;;;;;;17.75;6.82;;;13.50;58.20;;;;;;4991080;28;20226;-71
2022/03/24 13:00:25;;;;;;;13.82;7.07;;;13.50;58.30;;;;;;5007580;28;20568;-71
2022/03/24 13:03:15;;;;;;;12.32;7.22;;;13.60;58.10;;;;;;5001773;28;20233;-71
2022/03/24 13:06:06;;;;;;;9.73;7.13;;;13.60;57.90;;;;;;4994364;28;20483;-72
2022/03/24 13:09:18;;;;;;;11.23;7.43;;;13.60;58.20;;;;;;4998672;28;20218;-73
2022/03/24 13:12:12;;;;;;;12.73;6.80;;;13.60;58.40;;;;;;4996017;28;20217;-73
2022/03/24 13:15:03;;;;;;;12.85;7.32;;;13.70;58.40;;;;;;5004388;28;20229;-73
2022/03/24 13:17:55;;;;;;;13.25;7.38;;;13.70;58.40;;;;;;4999803;28;20304;-71
2022/03/24 13:20:47;;;;;;;12.25;7.60;;;13.60;58.40;;;;;;5004947;28;20366;-71
2022/03/24 13:23:37;;;;;;;10.77;6.90;;;13.60;58.20;;;;;;4996482;28;20218;-71
2022/03/24 13:26:25;;;;;;;16.15;7.78;;;13.50;58.40;;;;;;4986750;28;20295;-72
2022/03/24 13:29:14;;;;;;;13.73;7.25;;;13.60;58.50;;;;;;4994477;28;20665;-71
2022/03/24 13:32:11;;;;;;;14.10;7.15;;;13.70;58.90;;;;;;4998564;28;20229;-72
2022/03/24 13:35:04;;;;;;;12.68;7.15;;;13.70;58.70;;;;;;5001959;28;20229;-71
2022/03/24 13:37:56;;;;;;;11.52;6.65;;;13.70;58.70;;;;;;4994053;28;20234;-73
2022/03/24 13:40:47;;;;;;;13.65;7.00;;;13.70;58.80;;;;;;5006841;28;20324;-71
2022/03/24 13:43:37;;;;;;;14.15;7.07;;;13.70;58.70;;;;;;4997974;28;20223;-73
2022/03/24 13:46:26;;;;;;;11.32;6.43;;;13.70;58.60;;;;;;4998258;28;20237;-74
2022/03/24 13:49:16;;;;;;;9.35;6.72;;;13.60;58.60;;;;;;4995387;28;20222;-72
2022/03/24 13:52:06;;;;;;;9.35;6.82;;;13.60;58.90;;;;;;4990926;28;20593;-74
2022/03/24 13:55:00;;;;;;;10.20;6.53;;;13.70;58.90;;;;;;4989528;28;20222;-75
2022/03/24 13:57:57;;;;;;;15.70;7.20;;;13.70;59.00;;;;;;4994814;28;20222;-73
2022/03/24 14:00:52;;;;;;;12.20;6.13;;;13.70;58.90;;;;;;4994626;28;20223;-72
2022/03/24 14:03:43;;;;;;;11.73;6.72;;;13.70;58.90;;;;;;4988666;28;20281;-75
2022/03/24 14:06:32;;;;;;;10.82;6.70;;;13.70;58.90;;;;;;5007389;28;20229;-73
2022/03/24 14:09:23;;;;;;;12.13;6.75;;;13.70;58.90;;;;;;4994928;28;20760;-74
2022/03/24 14:12:12;;;;;;;10.57;7.00;;;13.70;58.90;;;;;;4994736;28;20233;-73
2022/03/24 14:15:06;;;;;;;14.20;7.70;;;13.70;59.00;;;;;;4990469;28;20539;-72
2022/03/24 14:18:18;;;;;;;10.95;7.10;;;13.70;59.00;;;;;;4993643;28;20230;-74
2022/03/24 14:21:15;;;;;;;16.63;7.55;;;13.70;58.80;;;;;;4995169;28;20276;-74
2022/03/24 14:24:05;;;;;;;11.00;6.85;;;13.80;58.80;;;;;;4989334;28;20295;-74
2022/03/24 14:26:57;;;;;;;9.27;6.53;;;13.80;58.80;;;;;;5018126;28;20237;-73
2022/03/24 14:30:01;;;;;;;17.15;7.15;;;13.70;59.50;;;;;;5009725;28;20226;-73
2022/03/24 14:32:52;;;;;;;12.52;7.55;;;13.70;58.90;;;;;;4993125;28;20328;-73
2022/03/24 14:35:41;;;;;;;10.65;7.00;;;13.70;59.00;;;;;;4995903;28;20214;-73
2022/03/24 14:38:30;;;;;;;13.98;8.02;;;13.70;59.10;;;;;;4994012;28;20242;-72
2022/03/24 14:41:19;;;;;;;12.68;8.27;;;13.70;59.30;;;;;;5007305;28;20249;-72
2022/03/24 14:44:09;;;;;;;15.40;8.32;;;13.70;59.90;;;;;;4999001;28;20888;-73
2022/03/24 14:46:57;;;;;;;13.23;8.50;;;13.70;59.50;;;;;;4994833;28;20622;-73
2022/03/24 14:49:48;;;;;;;13.57;8.55;;;13.60;59.40;;;;;;4995859;28;20222;-74
2022/03/24 14:52:36;;;;;;;16.48;8.90;;;13.70;59.70;;;;;;4995900;28;20226;-73
2022/03/24 14:55:25;;;;;;;14.32;8.60;;;13.60;59.70;;;;;;5004527;28;20313;-74
2022/03/24 14:58:14;;;;;;;14.23;8.60;;;13.60;59.80;;;;;;5007827;28;20218;-73
2022/03/24 15:01:03;;;;;;;18.80;8.95;;;13.70;59.90;;;;;;5017839;28;21949;-73
2022/03/24 15:03:52;;;;;;;13.88;8.60;;;13.60;60.00;;;;;;5019374;28;20233;-73
2022/03/24 15:06:43;;;;;;;17.48;8.30;;;13.70;60.10;;;;;;5019407;28;20213;-71
2022/03/24 15:09:31;;;;;;;16.95;8.85;;;13.60;60.30;;;;;;5001254;28;20871;-72
2022/03/24 15:12:20;;;;;;;14.88;8.80;;;13.70;60.30;;;;;;5016340;28;20225;-74
2022/03/24 16:21:10;;;;;;;15.75;9.52;;;13.30;64.30;;;;;;5005149;28;21606;-72
2022/03/24 16:23:59;;;;;;;15.90;9.80;;;13.20;65.00;;;;;;5015997;28;20226;-72
2022/03/24 16:26:48;;;;;;;19.23;10.15;;;13.30;65.10;;;;;;5024129;28;20225;-73
2022/03/24 16:29:39;;;;;;;14.88;10.05;;;13.20;65.20;;;;;;5012427;28;20694;-71
2022/03/24 16:32:28;;;;;;;18.85;9.93;;;13.20;65.30;;;;;;5016604;28;20356;-71
2022/03/24 16:35:17;;;;;;;14.85;9.27;;;13.20;65.60;;;;;;5014072;28;20252;-72
2022/03/24 16:38:08;;;;;;;16.35;9.80;;;13.10;65.90;;;;;;5015225;28;20229;-71
2022/03/24 16:40:56;;;;;;;17.30;9.23;;;13.10;65.90;;;;;;5012774;28;20391;-73
2022/03/24 16:43:45;;;;;;;17.65;10.20;;;13.10;66.00;;;;;;5008515;28;20210;-70